Talleys Crossing, North Carolina
Current Conditions -  °F | °C
As of 10:54 AM on Thursday 30 Oct 2014 (Local Time) from KGSO Reporting Station
Clear Clear  
Wind Chill: 59°   Ceiling: Unl
Heat Index: 59°   Visibility: 10mi
Dew Point: 39°   Wind: 7mph
Humidity: 48%   Direction: 40°NE
Pressure: 30.07"   Gusts: NA
Location:  36.1188°N, 80.075°W
Report Text: KGSO 301454Z 04006KT 10SM CLR 15/04 A3007 RMK AO2 SLP181 T01500039 50006
Loading
Personal Weather Stations






























Interactive Weather Map
Tropical Storm Tracking
New forecast layout! Learn more

10-Day Weather Forecast

Advertisements
Track Severe Weather on mobile